createdAt,value
2018-06-15T00:02:40.598Z,8.80
2018-06-15T00:05:38.528Z,7.40
2018-06-15T00:08:36.161Z,5.80
2018-06-15T00:11:34.001Z,7.23
2018-06-15T00:14:31.825Z,5.70
2018-06-15T00:17:29.761Z,6.83
2018-06-15T00:20:27.323Z,8.50
2018-06-15T00:23:25.404Z,6.07
2018-06-15T00:26:23.274Z,6.20
2018-06-15T00:29:20.919Z,8.77
2018-06-15T00:32:18.519Z,7.13
2018-06-15T00:35:16.507Z,5.97
2018-06-15T00:38:18.518Z,5.60
2018-06-15T00:41:16.384Z,6.43
2018-06-15T00:44:14.162Z,6.83
2018-06-15T00:47:11.950Z,7.20
2018-06-15T00:50:09.447Z,7.07
2018-06-15T00:53:07.349Z,5.90
2018-06-15T00:56:05.235Z,5.93
2018-06-15T00:59:03.107Z,6.73
2018-06-15T01:02:01.078Z,7.40
2018-06-15T01:04:58.702Z,8.17
2018-06-15T01:07:56.528Z,7.83
2018-06-15T01:10:54.068Z,7.13
2018-06-15T01:13:51.763Z,7.07
2018-06-15T01:16:50.637Z,6.67
2018-06-15T01:19:48.421Z,6.87
2018-06-15T01:22:46.502Z,6.30
2018-06-15T01:25:44.473Z,6.43
2018-06-15T01:28:42.358Z,6.33
2018-06-15T01:31:40.202Z,5.90
2018-06-15T01:34:38.290Z,6.00
2018-06-15T01:37:36.054Z,6.20
2018-06-15T01:40:31.430Z,8.17
2018-06-15T01:46:49.346Z,6.83
2018-06-15T01:49:47.106Z,7.13
2018-06-15T01:52:44.964Z,5.67
2018-06-15T01:55:46.608Z,6.50
2018-06-15T01:58:44.707Z,7.27
2018-06-15T02:01:42.308Z,6.17
2018-06-15T02:04:40.360Z,5.43
2018-06-15T02:07:38.329Z,6.13
2018-06-15T02:10:36.213Z,6.47
2018-06-15T02:13:34.070Z,6.93
2018-06-15T02:16:31.760Z,6.23
2018-06-15T02:19:29.682Z,5.83
2018-06-15T02:22:27.594Z,6.30
2018-06-15T02:25:25.385Z,5.20
2018-06-15T02:28:23.324Z,5.03
2018-06-15T02:31:21.037Z,5.23
2018-06-15T02:34:18.641Z,5.50
2018-06-15T02:37:16.357Z,5.23
2018-06-15T02:40:14.258Z,5.03
2018-06-15T02:43:12.032Z,6.27
2018-06-15T02:46:09.854Z,6.83
2018-06-15T02:49:07.762Z,5.53
2018-06-15T02:52:05.402Z,5.23
2018-06-15T02:55:03.111Z,5.17
2018-06-15T02:58:00.924Z,6.23
2018-06-15T03:00:58.549Z,5.80
2018-06-15T03:03:56.322Z,5.03
2018-06-15T03:06:53.975Z,6.93
2018-06-15T03:09:51.657Z,7.30
2018-06-15T03:12:49.452Z,8.27
2018-06-15T03:15:47.270Z,7.50
2018-06-15T03:18:44.994Z,6.73
2018-06-15T03:21:42.874Z,6.47
2018-06-15T03:24:40.612Z,7.90
2018-06-15T03:27:38.386Z,5.60
2018-06-15T03:30:36.029Z,5.50
2018-06-15T03:33:33.771Z,5.70
2018-06-15T03:36:31.548Z,8.17
2018-06-15T03:39:30.313Z,6.33
2018-06-15T03:42:19.921Z,5.60
2018-06-15T03:45:17.802Z,6.20
2018-06-15T03:48:15.471Z,6.73
2018-06-15T03:51:13.331Z,6.27
2018-06-15T03:54:10.969Z,8.43
2018-06-15T03:57:08.727Z,6.83
2018-06-15T04:00:06.226Z,6.23
2018-06-15T04:03:04.150Z,6.17
2018-06-15T04:06:03.035Z,9.70
2018-06-15T04:09:01.028Z,5.70
2018-06-15T04:11:58.851Z,8.57
2018-06-15T04:14:56.568Z,7.13
2018-06-15T04:17:59.444Z,5.77
2018-06-15T04:20:59.024Z,7.73
2018-06-15T04:23:56.833Z,7.00
2018-06-15T04:26:54.414Z,6.43
2018-06-15T04:29:54.456Z,6.07
2018-06-15T04:32:52.436Z,7.00
2018-06-15T04:35:50.187Z,5.63
2018-06-15T04:38:48.051Z,6.43
2018-06-15T04:41:45.942Z,7.40
2018-06-15T04:44:43.881Z,5.67
2018-06-15T04:47:41.705Z,5.30
2018-06-15T04:50:39.730Z,7.37
2018-06-15T04:53:37.619Z,6.07
2018-06-15T04:56:35.338Z,6.63
2018-06-15T04:59:33.116Z,5.47
2018-06-15T05:02:31.110Z,5.57
2018-06-15T05:05:28.917Z,5.40
2018-06-15T05:08:26.787Z,6.97
2018-06-15T05:11:24.555Z,5.50
2018-06-15T05:14:22.422Z,6.67
2018-06-15T05:17:20.298Z,6.50
2018-06-15T05:20:17.855Z,6.07
2018-06-15T05:23:15.668Z,6.10
2018-06-15T05:26:13.450Z,6.97
2018-06-15T05:29:11.202Z,7.10
2018-06-15T05:32:08.906Z,9.13
2018-06-15T05:35:06.561Z,7.93
2018-06-15T05:38:04.619Z,6.00
2018-06-15T05:41:02.249Z,5.73
2018-06-15T05:43:59.946Z,5.57
2018-06-15T05:46:57.515Z,5.63
2018-06-15T05:49:55.341Z,7.80
2018-06-15T05:52:52.978Z,7.00
2018-06-15T05:55:50.580Z,9.93
2018-06-15T05:58:48.274Z,7.10
2018-06-15T06:01:48.998Z,4.73
2018-06-15T06:04:46.901Z,7.50
2018-06-15T06:07:44.559Z,5.63
2018-06-15T06:10:42.506Z,7.33
2018-06-15T06:13:40.277Z,5.27
2018-06-15T06:16:38.014Z,7.63
2018-06-15T06:19:35.946Z,5.63
2018-06-15T06:22:33.817Z,8.53
2018-06-15T06:25:31.613Z,5.67
2018-06-15T06:28:29.347Z,4.47
2018-06-15T06:31:27.069Z,7.70
2018-06-15T06:34:24.911Z,4.67
2018-06-15T06:37:22.429Z,7.13
2018-06-15T06:40:20.256Z,4.33
2018-06-15T06:43:18.190Z,5.90
2018-06-15T06:46:15.974Z,4.17
2018-06-15T06:49:13.737Z,5.43
2018-06-15T06:52:11.657Z,4.40
2018-06-15T06:55:09.555Z,3.97
2018-06-15T06:58:07.374Z,5.97
2018-06-15T07:01:05.150Z,4.27
2018-06-15T07:04:02.779Z,4.70
2018-06-15T07:06:52.432Z,5.33
2018-06-15T07:09:50.189Z,5.30
2018-06-15T07:12:47.782Z,4.20
2018-06-15T07:15:45.699Z,6.87
2018-06-15T07:18:43.501Z,7.47
2018-06-15T07:21:41.246Z,16.50
2018-06-15T07:24:39.013Z,6.00
2018-06-15T07:27:36.819Z,6.10
2018-06-15T07:30:34.765Z,10.27
2018-06-15T07:33:32.700Z,5.23
2018-06-15T07:36:30.516Z,4.50
2018-06-15T07:39:28.940Z,6.63
2018-06-15T07:42:26.829Z,6.40
2018-06-15T07:45:24.668Z,17.57
2018-06-15T07:48:14.332Z,5.77
2018-06-15T07:51:12.245Z,6.90
2018-06-15T07:54:09.938Z,6.33
2018-06-15T07:57:07.743Z,25.97
2018-06-15T07:59:57.456Z,41.40
2018-06-15T08:02:55.336Z,14.47
2018-06-15T08:05:53.028Z,13.33
2018-06-15T08:08:50.561Z,24.80
2018-06-15T08:11:48.605Z,9.27
2018-06-15T08:14:46.257Z,12.90
2018-06-15T08:17:44.087Z,10.10
2018-06-15T08:20:41.648Z,8.53
2018-06-15T08:23:40.519Z,6.07
2018-06-15T08:26:38.262Z,7.60
2018-06-15T08:29:36.216Z,6.33
2018-06-15T08:32:33.957Z,5.57
2018-06-15T08:35:31.758Z,7.47
2018-06-15T08:38:29.527Z,3.50
2018-06-15T08:41:27.303Z,4.40
2018-06-15T08:44:24.914Z,4.57
2018-06-15T08:47:22.638Z,4.77
2018-06-15T08:50:20.142Z,3.97
2018-06-15T08:53:17.810Z,4.37
2018-06-15T08:56:15.255Z,4.17
2018-06-15T08:59:12.986Z,5.27
2018-06-15T09:02:10.712Z,6.07
2018-06-15T09:05:08.270Z,6.53
2018-06-15T09:08:05.837Z,4.83
2018-06-15T09:11:03.773Z,7.00
2018-06-15T09:14:01.445Z,6.30
2018-06-15T09:16:52.085Z,4.20
2018-06-15T09:19:49.750Z,4.07
2018-06-15T09:22:47.419Z,4.20
2018-06-15T09:25:45.185Z,5.83
2018-06-15T09:28:43.055Z,4.83
2018-06-15T09:31:40.877Z,4.60
2018-06-15T09:34:38.534Z,3.90
2018-06-15T09:37:36.143Z,5.43
2018-06-15T09:40:35.119Z,3.83
2018-06-15T09:43:32.661Z,4.03
2018-06-15T09:46:30.210Z,3.50
2018-06-15T09:49:27.973Z,4.70
2018-06-15T09:53:28.572Z,3.93
2018-06-15T09:56:26.175Z,4.33
2018-06-15T09:59:24.929Z,4.27
2018-06-15T10:02:22.763Z,4.27
2018-06-15T10:05:20.597Z,3.57
2018-06-15T10:08:18.346Z,4.17
2018-06-15T10:11:16.238Z,2.83
2018-06-15T10:14:13.970Z,4.03
2018-06-15T10:17:11.809Z,5.97
2018-06-15T10:20:13.381Z,3.93
2018-06-15T10:23:14.228Z,4.53
2018-06-15T10:26:15.065Z,8.63
2018-06-15T10:29:12.741Z,4.37
2018-06-15T10:32:11.353Z,3.27
2018-06-15T10:35:09.356Z,5.40
2018-06-15T10:38:07.074Z,4.93
2018-06-15T10:41:20.687Z,4.40
2018-06-15T10:44:21.088Z,3.70
2018-06-15T10:47:35.838Z,4.00
2018-06-15T10:51:29.332Z,4.17
2018-06-15T10:58:06.519Z,4.00
2018-06-15T11:01:07.334Z,9.47
2018-06-15T11:04:06.078Z,6.00
2018-06-15T11:10:11.983Z,3.67
2018-06-15T11:13:09.940Z,5.77
2018-06-15T11:16:07.962Z,4.70
2018-06-15T11:19:07.177Z,4.40
2018-06-15T11:22:04.881Z,4.17
2018-06-15T11:25:20.943Z,4.67
2018-06-15T11:28:18.849Z,4.20
2018-06-15T11:31:16.860Z,3.87
2018-06-15T11:34:14.741Z,4.70
2018-06-15T11:37:12.630Z,5.00
2018-06-15T11:40:10.240Z,4.13
2018-06-15T11:43:08.112Z,4.03
2018-06-15T11:46:06.039Z,5.63
2018-06-15T12:00:13.538Z,4.53
2018-06-15T12:02:40.946Z,4.67
2018-06-15T12:05:08.232Z,5.83
2018-06-15T12:07:35.521Z,3.90
2018-06-15T12:10:02.963Z,5.30
2018-06-15T12:12:30.337Z,5.43
2018-06-15T12:14:57.786Z,3.27
2018-06-15T12:17:25.322Z,3.13
2018-06-15T12:19:52.731Z,4.57
2018-06-15T12:22:20.372Z,3.30
2018-06-15T12:24:48.076Z,3.40
2018-06-15T12:27:15.635Z,2.87
2018-06-15T12:29:43.177Z,3.00
2018-06-15T12:32:10.677Z,4.10
2018-06-15T12:34:40.749Z,3.23
2018-06-15T12:37:08.991Z,3.27
2018-06-15T12:39:36.368Z,4.37
2018-06-15T12:42:03.919Z,3.70
2018-06-15T12:44:35.709Z,7.67
2018-06-15T12:47:03.399Z,5.20
2018-06-15T12:49:30.759Z,4.53
2018-06-15T12:51:58.173Z,3.80
2018-06-15T12:54:25.766Z,4.00
2018-06-15T12:56:53.125Z,3.63
2018-06-15T12:59:20.418Z,3.30
2018-06-15T13:01:47.691Z,4.27
2018-06-15T13:04:14.937Z,2.80
2018-06-15T13:06:42.441Z,4.10
2018-06-15T13:09:10.550Z,3.10
2018-06-15T13:11:37.882Z,3.43
2018-06-15T13:14:05.352Z,2.37
2018-06-15T13:16:33.295Z,2.93
2018-06-15T13:19:00.674Z,3.40
2018-06-15T13:21:28.049Z,4.03
2018-06-15T13:23:55.455Z,3.63
2018-06-15T13:26:23.024Z,2.80
2018-06-15T13:28:50.428Z,3.87
2018-06-15T13:31:17.933Z,3.70
2018-06-15T13:33:45.630Z,2.60
2018-06-15T13:36:12.970Z,3.47
2018-06-15T13:38:40.390Z,2.83
2018-06-15T13:41:07.691Z,4.87
2018-06-15T13:43:35.027Z,2.62
2018-06-15T13:46:02.476Z,4.42
2018-06-15T13:48:29.818Z,2.45
2018-06-15T13:50:57.104Z,2.70
2018-06-15T13:53:24.427Z,4.17
2018-06-15T13:55:51.811Z,3.67
2018-06-15T13:58:19.141Z,4.40
2018-06-15T14:00:46.431Z,3.00
2018-06-15T14:03:13.733Z,2.72
2018-06-15T14:05:41.860Z,3.95
2018-06-15T14:08:10.553Z,3.45
2018-06-15T14:10:38.029Z,2.35
2018-06-15T14:13:05.644Z,3.67
2018-06-15T14:15:33.003Z,4.12
2018-06-15T14:18:00.959Z,3.00
2018-06-15T14:20:29.065Z,3.50
2018-06-15T14:22:56.446Z,2.12
2018-06-15T14:25:31.920Z,2.62
2018-06-15T14:27:59.363Z,2.70
2018-06-15T14:30:26.919Z,3.30
2018-06-15T14:32:55.215Z,3.10
2018-06-15T14:35:22.493Z,2.08
2018-06-15T14:37:50.614Z,2.92
2018-06-15T14:40:18.402Z,2.42
2018-06-15T14:42:45.784Z,12.75
2018-06-15T14:45:13.561Z,7.17
2018-06-15T14:47:41.094Z,6.70
2018-06-15T14:50:08.521Z,3.95
2018-06-15T14:52:36.014Z,3.27
2018-06-15T14:55:03.476Z,4.00
2018-06-15T14:57:30.939Z,7.78
2018-06-15T14:59:58.475Z,13.28
2018-06-15T15:02:25.907Z,18.17
2018-06-15T15:04:53.348Z,6.08
2018-06-15T15:07:20.788Z,3.02
2018-06-15T15:09:48.316Z,3.08
2018-06-15T15:12:46.270Z,8.83
2018-06-15T15:15:13.998Z,6.37
2018-06-15T15:17:41.750Z,11.90
2018-06-15T15:20:09.475Z,4.40
2018-06-15T15:22:37.353Z,3.52
2018-06-15T15:25:07.108Z,4.58
2018-06-15T15:27:34.754Z,2.40
2018-06-15T15:30:02.272Z,4.17
2018-06-15T15:32:29.921Z,2.50
2018-06-15T15:34:57.287Z,2.73
2018-06-15T15:37:28.453Z,4.10
2018-06-15T15:40:12.278Z,3.35
2018-06-15T15:42:39.950Z,5.17
2018-06-15T15:45:07.752Z,3.70
2018-06-15T15:47:35.350Z,6.53
2018-06-15T15:50:02.774Z,2.70
2018-06-15T15:52:30.384Z,2.92
2018-06-15T15:54:57.824Z,4.70
2018-06-15T15:57:25.253Z,4.37
2018-06-15T15:59:52.731Z,4.70
2018-06-15T16:02:20.031Z,2.63
2018-06-15T16:04:47.534Z,3.13
2018-06-15T16:07:15.045Z,2.70
2018-06-15T16:09:42.538Z,4.23
2018-06-15T16:12:10.094Z,6.50
2018-06-15T16:14:38.010Z,6.60
2018-06-15T16:17:06.274Z,3.13
2018-06-15T16:19:33.826Z,3.33
2018-06-15T16:22:01.251Z,3.53
2018-06-15T16:24:32.391Z,2.90
2018-06-15T16:27:15.849Z,3.27
2018-06-15T16:29:43.548Z,9.67
2018-06-15T16:32:11.038Z,12.40
2018-06-15T16:34:38.704Z,9.67
2018-06-15T16:37:07.915Z,2.60
2018-06-15T16:39:35.544Z,4.63
2018-06-15T16:42:03.008Z,3.43
2018-06-15T16:44:30.986Z,3.90
2018-06-15T16:46:58.389Z,3.90
2018-06-15T16:49:25.859Z,2.63
2018-06-15T16:51:53.273Z,2.57
2018-06-15T16:54:20.752Z,4.07
2018-06-15T16:56:48.218Z,3.97
2018-06-15T16:59:15.811Z,2.83
2018-06-15T17:01:44.806Z,4.00
2018-06-15T17:04:12.264Z,4.20
2018-06-15T17:06:39.955Z,3.90
2018-06-15T17:09:08.986Z,3.07
2018-06-15T17:11:36.668Z,2.40
2018-06-15T17:14:04.525Z,2.70
2018-06-15T17:16:32.016Z,4.47
2018-06-15T17:18:59.818Z,5.00
2018-06-15T17:21:27.340Z,4.37
2018-06-15T17:23:54.852Z,3.63
2018-06-15T17:26:22.308Z,5.03
2018-06-15T17:28:49.824Z,7.00
2018-06-15T17:31:17.561Z,8.93
2018-06-15T17:33:45.989Z,6.03
2018-06-15T17:36:13.356Z,4.67
2018-06-15T17:38:41.058Z,3.70
2018-06-15T17:41:08.850Z,3.67
2018-06-15T17:43:36.406Z,2.60
2018-06-15T17:46:04.788Z,2.93
2018-06-15T17:48:32.386Z,3.43
2018-06-15T17:50:59.813Z,4.60
2018-06-15T17:53:27.104Z,9.83
2018-06-15T17:55:56.479Z,13.20
2018-06-15T17:58:43.860Z,5.00
2018-06-15T18:01:14.902Z,9.60
2018-06-15T18:03:43.814Z,9.33
2018-06-15T18:06:11.455Z,4.67
2018-06-15T18:08:38.774Z,6.83
2018-06-15T18:11:06.376Z,6.83
2018-06-15T18:13:33.747Z,3.73
2018-06-15T18:16:01.217Z,3.20
2018-06-15T18:18:28.862Z,3.37
2018-06-15T18:20:56.368Z,13.00
2018-06-15T18:23:24.218Z,12.77
2018-06-15T18:25:51.514Z,7.07
2018-06-15T18:28:19.391Z,5.97
2018-06-15T18:30:47.418Z,17.50
2018-06-15T18:33:15.036Z,15.90
2018-06-15T18:35:42.901Z,8.00
2018-06-15T18:38:10.688Z,6.70
2018-06-15T18:40:38.583Z,8.37
2018-06-15T18:43:07.301Z,9.30
2018-06-15T18:45:39.438Z,11.33
2018-06-15T18:48:06.995Z,14.13
2018-06-15T18:50:35.426Z,15.67
2018-06-15T18:53:03.071Z,15.70
2018-06-15T18:55:30.851Z,18.90
2018-06-15T18:57:59.297Z,14.17
2018-06-15T19:00:28.442Z,11.37
2018-06-15T19:02:56.343Z,9.90
2018-06-15T19:05:24.949Z,8.80
2018-06-15T19:07:53.715Z,6.13
2018-06-15T19:10:21.804Z,4.23
2018-06-15T19:12:49.972Z,6.77
2018-06-15T19:15:24.035Z,3.97
2018-06-15T19:17:51.921Z,3.50
2018-06-15T19:20:20.881Z,4.33
2018-06-15T19:22:50.885Z,4.70
2018-06-15T19:25:18.864Z,14.27
2018-06-15T19:27:46.328Z,5.77
2018-06-15T19:30:13.686Z,9.43
2018-06-15T19:32:41.822Z,12.77
2018-06-15T19:35:09.369Z,12.20
2018-06-15T19:37:38.869Z,16.53
2018-06-15T19:40:06.369Z,13.03
2018-06-15T19:42:34.115Z,9.10
2018-06-15T19:45:01.876Z,11.13
2018-06-15T19:47:30.471Z,24.50
2018-06-15T19:49:58.450Z,11.63
2018-06-15T19:52:26.832Z,9.77
2018-06-15T19:54:54.858Z,11.70
2018-06-15T19:57:22.363Z,8.03
2018-06-15T19:59:49.747Z,10.40
2018-06-15T20:02:17.167Z,9.33
2018-06-15T20:04:45.100Z,8.50
2018-06-15T20:07:12.731Z,6.60
2018-06-15T20:09:41.735Z,6.80
2018-06-15T20:12:09.265Z,17.63
2018-06-15T20:14:37.028Z,29.33
2018-06-15T20:17:04.406Z,33.83
2018-06-15T20:19:31.911Z,28.10
2018-06-15T20:21:59.423Z,22.60
2018-06-15T20:24:26.952Z,23.13
2018-06-15T20:26:54.491Z,25.53
2018-06-15T20:29:22.021Z,22.03
2018-06-15T20:31:49.614Z,16.57
2018-06-15T20:34:17.072Z,14.43
2018-06-15T20:36:44.596Z,15.13
2018-06-15T20:39:12.037Z,15.33
2018-06-15T20:41:39.349Z,14.43
2018-06-15T20:44:06.859Z,11.83
2018-06-15T20:46:34.777Z,19.13
2018-06-15T20:49:03.023Z,12.77
2018-06-15T20:51:30.885Z,12.50
2018-06-15T20:53:58.440Z,11.70
2018-06-15T20:56:26.170Z,14.03
2018-06-15T20:58:53.776Z,10.70
2018-06-15T21:01:21.397Z,11.97
2018-06-15T21:03:51.294Z,9.47
2018-06-15T21:06:18.926Z,13.17
2018-06-15T21:08:46.291Z,15.07
2018-06-15T21:11:13.796Z,9.40
2018-06-15T21:13:41.201Z,11.90
2018-06-15T21:16:08.503Z,10.77
2018-06-15T21:18:35.882Z,9.87
2018-06-15T21:21:03.410Z,9.43
2018-06-15T21:23:30.886Z,10.87
2018-06-15T21:25:58.833Z,10.87
2018-06-15T21:28:26.279Z,11.70
2018-06-15T21:30:54.273Z,10.90
2018-06-15T21:33:21.581Z,9.37
2018-06-15T21:35:48.972Z,12.13
2018-06-15T21:38:16.416Z,10.30
2018-06-15T21:40:43.868Z,10.13
2018-06-15T21:43:11.375Z,11.13
2018-06-15T21:45:39.396Z,8.17
2018-06-15T21:48:06.806Z,10.53
2018-06-15T21:50:34.574Z,9.03
2018-06-15T21:53:03.752Z,9.10
2018-06-15T21:55:31.313Z,8.77
2018-06-15T21:57:59.747Z,10.57
2018-06-15T22:00:27.129Z,10.33
2018-06-15T22:02:54.946Z,9.80
2018-06-15T22:05:22.308Z,8.17
2018-06-15T22:07:49.770Z,10.00
2018-06-15T22:10:17.976Z,8.67
2018-06-15T22:12:45.916Z,9.73
2018-06-15T22:15:13.235Z,9.93
2018-06-15T22:17:40.805Z,8.97
2018-06-15T22:20:08.146Z,13.87
2018-06-15T22:22:35.882Z,10.30
2018-06-15T22:25:04.384Z,10.07
2018-06-15T22:27:34.290Z,11.50
2018-06-15T22:30:03.379Z,10.13
2018-06-15T22:32:30.754Z,10.23
2018-06-15T22:34:58.089Z,8.30
2018-06-15T22:37:25.877Z,10.77
2018-06-15T22:39:54.369Z,10.03
2018-06-15T22:42:21.791Z,8.73
2018-06-15T22:44:49.297Z,10.37
2018-06-15T22:47:16.658Z,9.90
2018-06-15T22:49:44.020Z,9.80
2018-06-15T22:52:11.612Z,11.23
2018-06-15T22:54:39.317Z,12.53
2018-06-15T22:57:06.679Z,9.67
2018-06-15T22:59:33.969Z,11.03
2018-06-15T23:02:01.269Z,10.30
2018-06-15T23:04:29.482Z,12.30
2018-06-15T23:06:56.795Z,9.30
2018-06-15T23:09:24.236Z,9.40
2018-06-15T23:11:51.544Z,9.57
2018-06-15T23:14:18.922Z,12.10
2018-06-15T23:16:46.190Z,12.30
2018-06-15T23:19:13.587Z,10.40
2018-06-15T23:21:40.892Z,9.17
2018-06-15T23:24:08.154Z,10.23
2018-06-15T23:26:35.437Z,12.53
2018-06-15T23:29:02.851Z,10.97
2018-06-15T23:31:30.206Z,10.43
2018-06-15T23:33:57.498Z,10.87
2018-06-15T23:36:24.778Z,10.07
2018-06-15T23:38:52.117Z,10.70
2018-06-15T23:41:19.495Z,10.13
2018-06-15T23:43:46.865Z,12.17
2018-06-15T23:46:14.285Z,10.40
2018-06-15T23:48:41.681Z,10.23
2018-06-15T23:51:08.970Z,10.17
2018-06-15T23:53:36.264Z,8.90
2018-06-15T23:56:03.601Z,9.83
2018-06-15T23:58:30.917Z,13.13
